createdAt,value
2022-08-08T00:02:31.372Z,63.89
2022-08-08T00:05:18.610Z,63.88
2022-08-08T00:08:43.482Z,64.01
2022-08-08T00:11:46.950Z,64.14
2022-08-08T00:15:08.876Z,63.99
2022-08-08T00:18:03.229Z,64.06
2022-08-08T00:20:55.941Z,64.13
2022-08-08T00:23:47.735Z,64.23
2022-08-08T00:26:36.354Z,63.86
2022-08-08T00:29:15.105Z,63.79
2022-08-08T00:32:28.931Z,63.59
2022-08-08T00:34:55.991Z,63.38
2022-08-08T00:37:47.211Z,63.21
2022-08-08T00:41:12.842Z,63.62
2022-08-08T00:44:01.243Z,63.49
2022-08-08T00:46:57.783Z,63.81
2022-08-08T00:49:58.741Z,63.91
2022-08-08T00:53:20.116Z,63.85
2022-08-08T00:56:30.166Z,64.03
2022-08-08T00:59:46.416Z,64.08
2022-08-08T01:03:57.572Z,64.09
2022-08-08T01:06:17.280Z,63.95
2022-08-08T01:09:36.179Z,64.01
2022-08-08T01:12:33.016Z,63.94
2022-08-08T01:15:43.718Z,63.75
2022-08-08T01:18:54.226Z,63.98
2022-08-08T01:22:07.230Z,64.26
2022-08-08T01:25:08.547Z,64.25
2022-08-08T01:28:17.937Z,64.37
2022-08-08T01:32:15.282Z,64.60
2022-08-08T01:34:49.568Z,64.64
2022-08-08T01:37:56.965Z,64.30
2022-08-08T01:40:54.551Z,64.14
2022-08-08T01:43:50.590Z,64.09
2022-08-08T01:46:52.914Z,64.06
2022-08-08T01:50:17.122Z,64.07
2022-08-08T01:55:17.849Z,64.36
2022-08-08T01:57:17.242Z,64.50
2022-08-08T02:00:27.898Z,64.31
2022-08-08T02:03:55.004Z,64.58
2022-08-08T02:06:36.674Z,64.52
2022-08-08T02:10:02.305Z,64.47
2022-08-08T02:12:26.127Z,64.56
2022-08-08T02:15:27.694Z,64.56
2022-08-08T02:18:38.736Z,64.23
2022-08-08T02:21:20.227Z,64.30
2022-08-08T02:24:09.691Z,64.45
2022-08-08T02:27:17.856Z,64.20
2022-08-08T02:30:02.831Z,64.67
2022-08-08T02:33:11.005Z,64.61
2022-08-08T02:36:24.596Z,64.43
2022-08-08T02:39:02.679Z,64.56
2022-08-08T02:42:38.227Z,64.41
2022-08-08T02:46:02.081Z,64.44
2022-08-08T02:49:03.137Z,64.51
2022-08-08T02:52:32.583Z,64.69
2022-08-08T02:55:10.489Z,64.96
2022-08-08T02:58:36.916Z,64.82
2022-08-08T03:01:57.867Z,64.89
2022-08-08T03:05:11.944Z,64.70
2022-08-08T03:08:14.443Z,64.70
2022-08-08T03:11:47.961Z,64.49
2022-08-08T03:15:56.773Z,64.40
2022-08-08T03:18:00.153Z,64.37
2022-08-08T03:20:43.507Z,64.50
2022-08-08T03:23:17.570Z,64.42
2022-08-08T03:25:50.245Z,64.08
2022-08-08T03:28:41.493Z,64.17
2022-08-08T03:31:24.906Z,63.98
2022-08-08T03:34:00.398Z,64.19
2022-08-08T03:36:30.647Z,63.99
2022-08-08T03:39:14.719Z,63.90
2022-08-08T03:42:26.798Z,63.97
2022-08-08T03:44:35.189Z,63.60
2022-08-08T03:47:19.259Z,63.33
2022-08-08T03:50:00.994Z,63.62
2022-08-08T03:52:31.897Z,63.63
2022-08-08T03:55:11.155Z,63.68
2022-08-08T03:58:30.484Z,63.52
2022-08-08T04:01:02.872Z,63.62
2022-08-08T04:03:58.780Z,63.68
2022-08-08T04:06:23.732Z,63.49
2022-08-08T04:08:57.318Z,63.52
2022-08-08T04:11:25.454Z,63.30
2022-08-08T04:14:03.842Z,63.31
2022-08-08T04:16:41.429Z,63.63
2022-08-08T04:19:24.939Z,63.57
2022-08-08T04:21:54.224Z,63.43
2022-08-08T04:24:30.519Z,63.31
2022-08-08T04:27:01.626Z,63.18
2022-08-08T04:29:37.100Z,63.46
2022-08-08T04:32:07.095Z,63.83
2022-08-08T04:34:49.522Z,64.00
2022-08-08T04:37:31.969Z,64.02
2022-08-08T04:40:07.130Z,64.17
2022-08-08T04:42:37.223Z,63.91
2022-08-08T04:45:06.411Z,63.61
2022-08-08T04:47:36.731Z,64.13
2022-08-08T04:50:24.121Z,64.12
2022-08-08T04:53:01.122Z,63.77
2022-08-08T04:55:47.078Z,63.75
2022-08-08T04:58:22.642Z,63.91
2022-08-08T05:00:51.529Z,64.10
2022-08-08T05:04:10.053Z,64.23
2022-08-08T05:06:13.399Z,63.82
2022-08-08T05:08:51.631Z,63.86
2022-08-08T05:11:23.826Z,63.62
2022-08-08T05:13:57.686Z,63.63
2022-08-08T05:16:52.196Z,63.44
2022-08-08T05:20:04.115Z,63.34
2022-08-08T05:22:10.516Z,62.98
2022-08-08T05:24:38.899Z,63.27
2022-08-08T05:27:07.920Z,63.64
2022-08-08T05:29:35.792Z,63.41
2022-08-08T05:32:08.267Z,63.33
2022-08-08T05:34:49.486Z,63.37
2022-08-08T05:37:28.439Z,63.80
2022-08-08T05:40:16.964Z,63.88
2022-08-08T05:42:51.447Z,63.78
2022-08-08T05:45:30.721Z,63.96
2022-08-08T05:48:08.665Z,63.74
2022-08-08T05:50:38.501Z,63.66
2022-08-08T05:53:53.584Z,63.58
2022-08-08T05:56:10.376Z,63.18
2022-08-08T05:58:57.117Z,63.03
2022-08-08T06:01:55.714Z,62.84
2022-08-08T06:04:24.965Z,62.94
2022-08-08T06:07:01.576Z,63.17
2022-08-08T06:09:57.975Z,63.37
2022-08-08T06:12:30.341Z,63.33
2022-08-08T06:15:03.997Z,63.68
2022-08-08T06:18:18.128Z,63.75
2022-08-08T06:20:27.933Z,63.63
2022-08-08T06:22:56.364Z,63.74
2022-08-08T06:26:33.880Z,63.74
2022-08-08T06:28:29.243Z,63.82
2022-08-08T06:31:01.802Z,63.71
2022-08-08T06:34:25.628Z,63.96
2022-08-08T06:36:53.802Z,63.05
2022-08-08T06:39:22.780Z,62.07
2022-08-08T06:41:56.615Z,62.08
2022-08-08T06:44:26.700Z,61.94
2022-08-08T06:46:58.815Z,62.47
2022-08-08T06:49:55.610Z,62.75
2022-08-08T06:52:17.305Z,63.02
2022-08-08T06:54:49.009Z,63.38
2022-08-08T06:57:16.698Z,63.24
2022-08-08T07:00:10.108Z,62.88
2022-08-08T07:02:36.350Z,62.30
2022-08-08T07:05:12.185Z,61.82
2022-08-08T07:08:12.373Z,62.14
2022-08-08T07:10:51.157Z,62.27
2022-08-08T07:13:20.136Z,62.12
2022-08-08T07:16:27.392Z,62.32
2022-08-08T07:19:36.456Z,62.20
2022-08-08T07:22:11.920Z,62.46
2022-08-08T07:24:58.793Z,62.44
2022-08-08T07:27:35.516Z,62.56
2022-08-08T07:30:16.803Z,62.06
2022-08-08T07:32:49.296Z,61.65
2022-08-08T07:35:17.919Z,61.07
2022-08-08T07:37:56.321Z,60.64
2022-08-08T07:40:33.892Z,60.61
2022-08-08T07:43:09.706Z,60.12
2022-08-08T07:46:05.714Z,60.79
2022-08-08T07:48:29.970Z,60.91
2022-08-08T07:51:00.235Z,60.55
2022-08-08T07:54:01.334Z,60.54
2022-08-08T07:56:37.122Z,60.21
2022-08-08T07:59:16.284Z,60.46
2022-08-08T08:02:35.398Z,60.60
2022-08-08T08:04:55.737Z,61.24
2022-08-08T08:07:37.778Z,61.84
2022-08-08T08:10:12.259Z,61.08
2022-08-08T08:12:50.947Z,59.47
2022-08-08T08:15:23.590Z,59.17
2022-08-08T08:17:55.942Z,59.13
2022-08-08T08:20:30.306Z,59.12
2022-08-08T08:22:57.921Z,59.36
2022-08-08T08:25:43.808Z,59.64
2022-08-08T08:28:16.904Z,58.72
2022-08-08T08:30:49.415Z,58.74
2022-08-08T08:33:17.493Z,59.28
2022-08-08T08:36:19.010Z,58.75
2022-08-08T08:38:35.696Z,58.74
2022-08-08T08:41:17.233Z,59.11
2022-08-08T08:43:45.797Z,58.77
2022-08-08T08:46:17.622Z,58.66
2022-08-08T08:48:49.429Z,58.07
2022-08-08T08:51:18.952Z,58.19
2022-08-08T08:53:56.562Z,57.75
2022-08-08T08:56:28.342Z,57.41
2022-08-08T08:58:57.959Z,57.12
2022-08-08T09:01:33.167Z,57.65
2022-08-08T09:04:31.727Z,57.24
2022-08-08T09:07:02.323Z,57.09
2022-08-08T09:09:47.675Z,56.63
2022-08-08T09:12:19.898Z,56.74
2022-08-08T09:14:51.619Z,56.21
2022-08-08T09:17:22.462Z,56.34
2022-08-08T09:21:59.117Z,56.20
2022-08-08T09:22:48.079Z,55.78
2022-08-08T09:25:16.952Z,55.76
2022-08-08T09:27:58.192Z,55.70
2022-08-08T09:30:27.716Z,55.46
2022-08-08T09:33:12.241Z,55.55
2022-08-08T09:35:50.024Z,55.03
2022-08-08T09:38:54.352Z,54.39
2022-08-08T09:41:54.900Z,54.60
2022-08-08T09:44:49.740Z,54.99
2022-08-08T09:47:26.647Z,54.82
2022-08-08T09:50:21.123Z,54.08
2022-08-08T09:52:56.700Z,55.17
2022-08-08T09:55:51.802Z,54.73
2022-08-08T09:58:25.926Z,53.99
2022-08-08T10:01:01.256Z,54.26
2022-08-08T10:03:39.612Z,53.76
2022-08-08T10:06:19.630Z,52.76
2022-08-08T10:08:56.652Z,51.41
2022-08-08T10:12:26.221Z,51.64
2022-08-08T10:14:28.636Z,52.26
2022-08-08T10:16:59.855Z,51.26
2022-08-08T10:19:46.112Z,52.38
2022-08-08T10:22:28.659Z,52.73
2022-08-08T10:25:06.409Z,53.18
2022-08-08T10:27:43.871Z,53.32
2022-08-08T10:30:16.376Z,52.93
2022-08-08T10:33:01.656Z,51.53
2022-08-08T10:36:08.895Z,51.97
2022-08-08T10:38:20.863Z,52.88
2022-08-08T10:40:53.318Z,53.98
2022-08-08T10:43:22.252Z,53.65
2022-08-08T10:45:56.802Z,53.29
2022-08-08T10:48:57.850Z,53.03
2022-08-08T10:51:31.569Z,53.07
2022-08-08T10:54:08.270Z,52.84
2022-08-08T10:56:43.337Z,52.65
2022-08-08T10:59:14.629Z,54.74
2022-08-08T11:01:49.386Z,55.96
2022-08-08T11:04:29.396Z,56.21
2022-08-08T11:07:07.265Z,57.48
2022-08-08T11:09:35.237Z,58.36
2022-08-08T11:12:12.925Z,58.01
2022-08-08T11:14:59.718Z,58.73
2022-08-08T11:18:00.017Z,58.96
2022-08-08T11:20:28.778Z,58.90
2022-08-08T11:23:05.304Z,58.79
2022-08-08T11:34:01.601Z,58.70
2022-08-08T11:40:31.753Z,58.31
2022-08-08T11:43:03.859Z,57.59
2022-08-08T11:45:39.796Z,58.41
2022-08-08T11:48:20.459Z,58.51
2022-08-08T11:50:52.617Z,59.15
2022-08-08T11:53:21.296Z,58.43
2022-08-08T11:55:52.850Z,59.65
2022-08-08T11:58:21.816Z,59.20
2022-08-08T12:00:53.512Z,61.40
2022-08-08T12:03:31.137Z,59.11
2022-08-08T12:05:59.346Z,59.15
2022-08-08T12:08:35.946Z,57.15
2022-08-08T12:11:18.345Z,58.78
2022-08-08T12:14:04.914Z,58.59
2022-08-08T12:16:42.025Z,56.98
2022-08-08T12:19:14.079Z,56.56
2022-08-08T12:22:00.553Z,55.50
2022-08-08T12:24:30.058Z,54.60
2022-08-08T12:26:58.660Z,54.92
2022-08-08T12:29:41.375Z,54.39
2022-08-08T12:32:19.711Z,54.26
2022-08-08T12:35:13.687Z,53.61
2022-08-08T12:38:02.205Z,54.42
2022-08-08T12:40:56.459Z,54.46
2022-08-08T12:43:43.355Z,55.33
2022-08-08T12:46:19.078Z,56.30
2022-08-08T12:49:42.995Z,57.77
2022-08-08T12:52:02.247Z,58.55
2022-08-08T12:54:40.783Z,58.79
2022-08-08T12:57:25.993Z,58.57
2022-08-08T13:00:04.768Z,59.13
2022-08-08T13:02:42.251Z,59.24
2022-08-08T13:05:26.680Z,57.27
2022-08-08T13:08:19.616Z,55.99
2022-08-08T13:10:58.046Z,56.35
2022-08-08T13:13:35.065Z,56.92
2022-08-08T13:16:25.882Z,57.09
2022-08-08T13:19:05.510Z,57.92
2022-08-08T13:21:53.015Z,57.89
2022-08-08T13:24:40.852Z,57.60
2022-08-08T13:27:18.054Z,57.40
2022-08-08T13:30:05.649Z,57.24
2022-08-08T13:32:39.847Z,56.95
2022-08-08T13:35:24.253Z,56.66
2022-08-08T13:38:06.194Z,57.04
2022-08-08T13:40:35.880Z,57.69
2022-08-08T13:43:08.698Z,58.03
2022-08-08T13:45:36.008Z,57.71
2022-08-08T13:48:12.729Z,58.49
2022-08-08T13:50:52.512Z,58.08
2022-08-08T13:53:31.394Z,57.96
2022-08-08T13:56:04.406Z,57.41
2022-08-08T13:58:31.725Z,56.46
2022-08-08T14:01:23.111Z,55.79
2022-08-08T14:04:00.959Z,55.44
2022-08-08T14:06:32.999Z,53.64
2022-08-08T14:09:24.278Z,53.26
2022-08-08T14:11:49.576Z,52.67
2022-08-08T14:14:21.070Z,51.44
2022-08-08T14:16:53.733Z,50.70
2022-08-08T14:19:55.608Z,51.26
2022-08-08T14:22:25.674Z,51.18
2022-08-08T14:24:58.867Z,51.00
2022-08-08T14:27:40.405Z,50.24
2022-08-08T14:30:18.490Z,49.60
2022-08-08T14:32:52.834Z,48.41
2022-08-08T14:35:35.083Z,47.33
2022-08-08T14:38:33.469Z,45.89
2022-08-08T14:40:59.006Z,44.22
2022-08-08T14:44:02.885Z,44.14
2022-08-08T14:46:30.963Z,43.90
2022-08-08T14:49:20.614Z,43.42
2022-08-08T14:52:08.850Z,43.08
2022-08-08T14:54:49.637Z,41.91
2022-08-08T14:57:17.590Z,43.30
2022-08-08T14:59:51.495Z,44.48
2022-08-08T15:02:25.262Z,45.34
2022-08-08T15:04:53.240Z,45.49
2022-08-08T15:07:24.293Z,45.94
2022-08-08T15:10:09.275Z,46.33
2022-08-08T15:12:38.601Z,46.95
2022-08-08T15:15:09.508Z,47.07
2022-08-08T15:17:45.762Z,47.51
2022-08-08T15:20:16.110Z,47.70
2022-08-08T15:22:45.949Z,48.46
2022-08-08T15:25:17.531Z,48.91
2022-08-08T15:28:03.873Z,49.37
2022-08-08T15:30:35.461Z,49.41
2022-08-08T15:33:14.300Z,49.16
2022-08-08T15:35:51.581Z,49.56
2022-08-08T15:38:18.804Z,49.50
2022-08-08T15:40:46.476Z,50.50
2022-08-08T15:43:18.604Z,49.58
2022-08-08T15:46:02.737Z,49.97
2022-08-08T15:49:45.481Z,51.80
2022-08-08T15:53:11.114Z,51.95
2022-08-08T15:55:43.702Z,51.83
2022-08-08T15:58:15.978Z,51.11
2022-08-08T16:00:50.298Z,51.24
2022-08-08T16:03:18.239Z,51.35
2022-08-08T16:06:01.134Z,50.90
2022-08-08T16:08:29.737Z,51.24
2022-08-08T16:13:10.579Z,51.02
2022-08-08T16:13:46.127Z,51.39
2022-08-08T16:16:18.121Z,51.50
2022-08-08T16:18:57.188Z,51.63
2022-08-08T16:21:29.005Z,51.21
2022-08-08T16:24:17.176Z,51.14
2022-08-08T16:26:44.619Z,51.15
2022-08-08T16:29:36.987Z,51.28
2022-08-08T16:32:11.191Z,51.60
2022-08-08T16:34:41.521Z,51.66
2022-08-08T16:37:08.736Z,51.74
2022-08-08T16:40:02.528Z,51.71
2022-08-08T16:42:30.592Z,52.50
2022-08-08T16:44:57.987Z,52.63
2022-08-08T16:47:40.548Z,52.51
2022-08-08T16:50:15.958Z,52.67
2022-08-08T16:55:03.766Z,53.11
2022-08-08T16:55:52.213Z,53.19
2022-08-08T16:58:25.614Z,52.98
2022-08-08T17:00:58.121Z,52.86
2022-08-08T17:03:57.971Z,52.74
2022-08-08T17:06:36.128Z,52.80
2022-08-08T17:09:02.531Z,53.19
2022-08-08T17:11:38.884Z,53.54
2022-08-08T17:14:19.098Z,53.86
2022-08-08T17:16:57.665Z,53.21
2022-08-08T17:19:29.050Z,53.85
2022-08-08T17:22:01.445Z,53.79
2022-08-08T17:24:31.028Z,53.91
2022-08-08T17:27:00.275Z,53.99
2022-08-08T17:29:33.624Z,54.01
2022-08-08T17:32:04.431Z,54.69
2022-08-08T17:35:56.220Z,54.66
2022-08-08T17:39:05.102Z,55.08
2022-08-08T17:41:58.553Z,55.25
2022-08-08T17:44:30.381Z,55.27
2022-08-08T17:48:29.522Z,55.13
2022-08-08T17:50:58.531Z,55.50
2022-08-08T17:54:28.906Z,55.73
2022-08-08T17:56:56.751Z,55.88
2022-08-08T17:59:30.447Z,55.77
2022-08-08T18:02:05.384Z,55.52
2022-08-08T18:04:49.430Z,55.60
2022-08-08T18:08:01.164Z,55.92
2022-08-08T18:10:06.989Z,56.50
2022-08-08T18:12:34.936Z,56.87
2022-08-08T18:15:07.345Z,57.43
2022-08-08T18:18:09.623Z,57.48
2022-08-08T18:20:43.588Z,58.50
2022-08-08T18:23:27.958Z,58.82
2022-08-08T18:26:01.474Z,59.13
2022-08-08T18:28:54.138Z,58.89
2022-08-08T18:31:22.717Z,57.55
2022-08-08T18:34:12.268Z,57.84
2022-08-08T18:36:38.419Z,57.65
2022-08-08T18:39:06.435Z,57.93
2022-08-08T18:41:51.170Z,57.69
2022-08-08T18:44:21.023Z,57.48
2022-08-08T18:46:57.955Z,57.27
2022-08-08T18:49:57.263Z,57.48
2022-08-08T18:52:25.799Z,57.72
2022-08-08T18:54:59.351Z,57.90
2022-08-08T18:57:44.725Z,58.05
2022-08-08T19:00:27.055Z,58.14
2022-08-08T19:02:55.996Z,58.32
2022-08-08T19:05:32.499Z,58.10
2022-08-08T19:08:25.198Z,58.26
2022-08-08T19:11:01.806Z,58.82
2022-08-08T19:13:52.363Z,59.21
2022-08-08T19:16:20.329Z,59.43
2022-08-08T19:19:00.226Z,59.81
2022-08-08T19:21:33.531Z,59.43
2022-08-08T19:24:42.050Z,59.79
2022-08-08T19:27:08.803Z,59.62
2022-08-08T19:30:23.979Z,59.28
2022-08-08T19:32:52.416Z,59.31
2022-08-08T19:35:25.702Z,59.15
2022-08-08T19:38:10.082Z,59.51
2022-08-08T19:40:47.306Z,59.88
2022-08-08T19:43:14.517Z,59.73
2022-08-08T19:45:58.829Z,59.64
2022-08-08T19:48:29.107Z,59.88
2022-08-08T19:51:01.178Z,60.06
2022-08-08T19:53:52.788Z,60.15
2022-08-08T19:56:39.229Z,60.38
2022-08-08T19:59:04.788Z,60.13
2022-08-08T20:02:00.963Z,60.29
2022-08-08T20:04:23.672Z,60.47
2022-08-08T20:06:51.805Z,60.48
2022-08-08T20:09:23.017Z,60.27
2022-08-08T20:11:52.874Z,59.98
2022-08-08T20:14:35.749Z,59.95
2022-08-08T20:17:04.764Z,59.75
2022-08-08T20:19:34.760Z,59.61
2022-08-08T20:22:20.917Z,60.07
2022-08-08T20:24:53.919Z,60.06
2022-08-08T20:27:21.358Z,60.44
2022-08-08T20:29:55.689Z,60.06
2022-08-08T20:32:29.562Z,60.46
2022-08-08T20:35:01.168Z,60.24
2022-08-08T20:37:46.615Z,60.27
2022-08-08T20:40:17.985Z,60.38
2022-08-08T20:43:01.342Z,60.33
2022-08-08T20:45:54.973Z,60.47
2022-08-08T20:48:21.488Z,60.70
2022-08-08T20:50:53.528Z,60.62
2022-08-08T20:53:58.014Z,60.39
2022-08-08T20:56:10.270Z,60.57
2022-08-08T20:58:40.706Z,60.57
2022-08-08T21:01:19.970Z,60.22
2022-08-08T21:04:00.217Z,59.90
2022-08-08T21:06:52.671Z,59.59
2022-08-08T21:09:16.478Z,59.82
2022-08-08T21:11:51.649Z,59.75
2022-08-08T21:14:30.253Z,60.01
2022-08-08T21:17:03.149Z,59.99
2022-08-08T21:19:45.098Z,59.92
2022-08-08T21:22:15.313Z,60.40
2022-08-08T21:24:52.925Z,60.27
2022-08-08T21:28:05.858Z,60.08
2022-08-08T21:30:18.749Z,60.03
2022-08-08T21:32:52.271Z,60.06
2022-08-08T21:36:13.654Z,60.00
2022-08-08T21:38:16.055Z,60.25
2022-08-08T21:40:56.373Z,59.94
2022-08-08T21:43:33.374Z,60.13
2022-08-08T21:48:05.361Z,60.11
2022-08-08T21:48:55.502Z,59.97
2022-08-08T21:54:18.597Z,60.03
2022-08-08T21:54:36.378Z,59.79
2022-08-08T21:57:03.723Z,59.78
2022-08-08T22:00:02.599Z,59.72
2022-08-08T22:02:19.233Z,60.00
2022-08-08T22:04:58.961Z,59.90
2022-08-08T22:07:34.634Z,60.16
2022-08-08T22:10:18.261Z,60.20
2022-08-08T22:13:17.197Z,60.29
2022-08-08T22:15:58.355Z,60.19
2022-08-08T22:18:30.668Z,60.32
2022-08-08T22:21:14.648Z,60.16
2022-08-08T22:23:51.276Z,60.28
2022-08-08T22:26:30.975Z,60.34
2022-08-08T22:29:14.347Z,60.30
2022-08-08T22:32:01.734Z,60.26
2022-08-08T22:34:39.613Z,60.70
2022-08-08T22:37:28.238Z,60.30
2022-08-08T22:40:00.992Z,60.09
2022-08-08T22:42:31.913Z,60.29
2022-08-08T22:45:12.145Z,60.61
2022-08-08T22:47:47.190Z,60.53
2022-08-08T22:50:27.317Z,60.65
2022-08-08T22:54:28.049Z,60.65
2022-08-08T22:55:58.415Z,60.84
2022-08-08T22:58:33.089Z,60.68
2022-08-08T23:01:30.292Z,60.78
2022-08-08T23:03:56.296Z,60.84
2022-08-08T23:06:25.554Z,61.10
2022-08-08T23:08:58.818Z,61.22
2022-08-08T23:12:28.790Z,61.45
2022-08-08T23:14:20.844Z,61.23
2022-08-08T23:16:54.755Z,61.05
2022-08-08T23:19:31.101Z,61.07
2022-08-08T23:22:05.838Z,61.03
2022-08-08T23:24:41.234Z,61.37
2022-08-08T23:27:37.595Z,61.59
2022-08-08T23:29:59.550Z,61.28
2022-08-08T23:32:26.788Z,61.59
2022-08-08T23:34:59.007Z,61.43
2022-08-08T23:37:54.016Z,61.73
2022-08-08T23:40:16.203Z,61.79
2022-08-08T23:42:45.274Z,61.97
2022-08-08T23:45:13.830Z,62.14
2022-08-08T23:49:03.887Z,62.38
2022-08-08T23:50:31.259Z,62.26
2022-08-08T23:53:03.471Z,62.47
2022-08-08T23:55:33.383Z,62.47
2022-08-08T23:58:09.722Z,62.46
